North Cohocton, New York
Current Conditions -  °F | °C
As of 1:54 AM on Friday 31 Oct 2014 (Local Time) from KDSV Reporting Station
Overcast Overcast  
Wind Chill: 36°   Ceiling: 5000
Heat Index: 41°   Visibility: 10mi
Dew Point: 35°   Wind: 7mph
Humidity: 79%   Direction: 100°E
Pressure: 30.02"   Gusts: NA
Location:  42.5629°N, 77.4667°W
Report Text: KDSV 310554Z AUTO 10006KT 10SM OVC050 05/02 A3002 RMK AO2 SLP180 T00500017 10078 20050 56005
Loading
Personal Weather Stations






























Interactive Weather Map
Tropical Storm Tracking
New forecast layout! Learn more

10-Day Weather Forecast

Advertisements
Track Severe Weather on mobile